Time;durP1;ratioP1;P1;durP2;ratioP2;P2;SDS_P1;SDS_P2;PMS_P1;PMS_P2;Temp;Humidity;BMP_temperature;BMP_pressure;BME280_temperature;BME280_humidity;BME280_pressure;Samples;Min_cycle;Max_cycle;Signal;HPM_P1;HPM_P2
2023/06/21 00:01:03;;;;;;;8.80;7.90;;;;;;;22.41;100.00;100016.09;5087225;28;20692;-76
2023/06/21 00:03:28;;;;;;;9.63;8.83;;;;;;;22.39;100.00;100011.75;5091251;28;20289;-77
2023/06/21 00:05:54;;;;;;;9.77;8.87;;;;;;;22.38;100.00;100010.09;5099230;28;20270;-76
2023/06/21 00:08:19;;;;;;;9.60;8.63;;;;;;;22.38;100.00;100003.97;5088529;28;20189;-76
2023/06/21 00:10:45;;;;;;;9.50;8.67;;;;;;;22.36;100.00;100000.56;5083039;28;20180;-75
2023/06/21 00:13:10;;;;;;;8.53;7.83;;;;;;;22.34;100.00;100011.22;5083887;28;20192;-77
2023/06/21 00:15:36;;;;;;;8.80;8.10;;;;;;;22.32;100.00;100009.59;5085940;28;20273;-77
2023/06/21 00:18:02;;;;;;;9.90;9.00;;;;;;;22.31;100.00;100013.22;5087146;28;20188;-76
2023/06/21 00:20:28;;;;;;;8.70;8.03;;;;;;;22.29;100.00;100018.56;5086162;28;20197;-76
2023/06/21 00:22:55;;;;;;;9.43;8.70;;;;;;;22.27;100.00;100028.34;5080221;28;20229;-76
2023/06/21 00:25:22;;;;;;;9.17;8.27;;;;;;;22.25;100.00;100026.75;5081377;28;20218;-76
2023/06/21 00:27:47;;;;;;;8.13;7.53;;;;;;;22.26;100.00;100029.28;5091808;28;20191;-76
2023/06/21 00:30:13;;;;;;;8.63;7.93;;;;;;;22.27;100.00;100040.69;5082999;28;20186;-76
2023/06/21 00:32:41;;;;;;;9.03;8.33;;;;;;;22.28;100.00;100045.03;5084020;28;20224;-76
2023/06/21 00:35:07;;;;;;;8.27;7.57;;;;;;;22.26;100.00;100054.81;5089770;28;20189;-76
2023/06/21 00:37:32;;;;;;;8.73;8.03;;;;;;;22.24;100.00;100044.34;5086721;28;20196;-76
2023/06/21 00:39:57;;;;;;;8.57;7.97;;;;;;;22.21;100.00;100042.75;5087635;28;20365;-76
2023/06/21 00:42:23;;;;;;;8.70;8.00;;;;;;;22.20;100.00;100041.06;5085903;28;20210;-76
2023/06/21 00:44:48;;;;;;;8.73;8.03;;;;;;;22.18;100.00;100048.22;5090579;28;20696;-76
2023/06/21 00:47:14;;;;;;;8.73;7.90;;;;;;;22.16;100.00;100062.44;5079299;28;20187;-76
2023/06/21 00:49:39;;;;;;;8.40;7.70;;;;;;;22.15;100.00;100066.00;5081070;28;20326;-76
2023/06/21 00:52:05;;;;;;;8.83;8.13;;;;;;;22.15;100.00;100058.09;5075483;28;20198;-77
2023/06/21 00:54:34;;;;;;;8.67;7.97;;;;;;;22.13;100.00;100058.22;5087190;28;20676;-76
2023/06/21 00:57:01;;;;;;;8.60;7.93;;;;;;;22.11;100.00;100054.81;5080955;28;20219;-76
2023/06/21 00:59:27;;;;;;;8.57;7.97;;;;;;;22.11;100.00;100056.59;5089293;28;20184;-76
2023/06/21 01:01:56;;;;;;;8.83;8.10;;;;;;;22.11;100.00;100056.59;5091801;28;20212;-77
2023/06/21 01:04:28;;;;;;;9.00;8.30;;;;;;;22.07;100.00;100063.84;5088572;28;20184;-77
2023/06/21 01:07:01;;;;;;;8.67;7.97;;;;;;;22.01;100.00;100062.44;5081478;28;20185;-77
2023/06/21 01:09:54;;;;;;;9.20;8.50;;;;;;;21.98;100.00;100061.78;5079062;28;20181;-77
2023/06/21 01:12:50;;;;;;;9.47;8.63;;;;;;;21.96;100.00;100069.75;5080027;28;20229;-77
2023/06/21 01:15:20;;;;;;;9.10;8.40;;;;;;;21.98;100.00;100069.69;5077906;28;20665;-76
2023/06/21 01:17:51;;;;;;;8.73;7.93;;;;;;;21.97;100.00;100068.81;5087774;28;20189;-76
2023/06/21 01:20:24;;;;;;;8.90;8.20;;;;;;;21.98;100.00;100070.53;5083345;28;20177;-76
2023/06/21 01:23:23;;;;;;;9.07;8.37;;;;;;;21.97;100.00;100060.09;5092538;28;20216;-76
2023/06/21 01:26:10;;;;;;;9.00;8.33;;;;;;;21.91;100.00;100050.78;5080346;28;20227;-77
2023/06/21 01:29:11;;;;;;;9.87;8.97;;;;;;;21.88;100.00;100061.47;5085458;28;20184;-77
2023/06/21 01:31:39;;;;;;;9.47;8.53;;;;;;;21.82;100.00;100072.38;5089111;28;20207;-76
2023/06/21 01:34:05;;;;;;;9.07;8.37;;;;;;;21.77;100.00;100077.91;5078294;28;20186;-77
2023/06/21 01:36:31;;;;;;;9.77;8.97;;;;;;;21.69;100.00;100081.00;5082177;28;20545;-77
2023/06/21 01:38:57;;;;;;;8.73;8.03;;;;;;;21.64;100.00;100090.13;5082107;28;20702;-77
2023/06/21 01:41:24;;;;;;;9.30;8.40;;;;;;;21.57;100.00;100098.34;5087949;28;20204;-77
2023/06/21 01:43:50;;;;;;;9.17;8.30;;;;;;;21.54;100.00;100100.31;5092374;28;20209;-76
2023/06/21 01:46:17;;;;;;;8.60;7.80;;;;;;;21.51;100.00;100103.97;5087359;28;20186;-77
2023/06/21 01:48:43;;;;;;;9.23;8.43;;;;;;;21.48;100.00;100109.41;5076323;28;20197;-76
2023/06/21 01:51:10;;;;;;;9.53;8.83;;;;;;;21.45;100.00;100102.53;5081349;28;20744;-76
2023/06/21 01:53:36;;;;;;;8.33;7.63;;;;;;;21.42;100.00;100107.97;5086524;28;20184;-75
2023/06/21 01:56:08;;;;;;;8.80;8.17;;;;;;;21.42;100.00;100104.47;5085239;28;20283;-76
2023/06/21 01:58:33;;;;;;;8.73;8.10;;;;;;;21.41;100.00;100111.53;5083768;28;20539;-76
2023/06/21 02:01:01;;;;;;;9.23;8.43;;;;;;;21.41;100.00;100119.44;5090477;28;20227;-77
2023/06/21 02:03:28;;;;;;;8.67;8.00;;;;;;;21.40;100.00;100122.19;5087691;28;20299;-75
2023/06/21 02:05:55;;;;;;;8.73;8.07;;;;;;;21.41;100.00;100123.84;5083209;28;20290;-76
2023/06/21 02:08:22;;;;;;;9.00;8.20;;;;;;;21.42;100.00;100122.91;5089879;28;20245;-76
2023/06/21 02:10:47;;;;;;;8.70;8.00;;;;;;;21.43;100.00;100120.22;5092651;28;20560;-76
2023/06/21 02:13:14;;;;;;;8.00;7.37;;;;;;;21.44;100.00;100118.41;5094722;28;20199;-76
2023/06/21 02:15:42;;;;;;;8.50;7.80;;;;;;;21.44;100.00;100118.41;5086041;28;20204;-76
2023/06/21 02:18:09;;;;;;;8.20;7.57;;;;;;;21.44;100.00;100116.66;5081021;28;20179;-76
2023/06/21 02:20:35;;;;;;;8.77;8.10;;;;;;;21.45;100.00;100123.59;5085072;28;20180;-76
2023/06/21 02:23:00;;;;;;;8.10;7.50;;;;;;;21.47;100.00;100129.63;5090285;28;20208;-76
2023/06/21 02:25:27;;;;;;;8.23;7.63;;;;;;;21.49;100.00;100132.16;5091114;28;20197;-76
2023/06/21 02:27:52;;;;;;;8.77;8.00;;;;;;;21.50;100.00;100125.97;5084629;28;20180;-76
2023/06/21 02:30:18;;;;;;;8.13;7.57;;;;;;;21.51;100.00;100124.16;5090596;28;20188;-76
2023/06/21 02:32:43;;;;;;;8.40;7.63;;;;;;;21.52;100.00;100129.38;5086084;28;20201;-77
2023/06/21 02:35:09;;;;;;;7.87;7.27;;;;;;;21.53;100.00;100130.19;5085295;28;20217;-76
2023/06/21 02:37:35;;;;;;;8.40;7.70;;;;;;;21.51;100.00;100135.56;5086013;28;20185;-75
2023/06/21 02:40:09;;;;;;;8.20;7.60;;;;;;;21.51;100.00;100142.59;5082592;28;22165;-76
2023/06/21 02:42:35;;;;;;;7.60;7.10;;;;;;;21.53;100.00;100149.50;5093420;28;20211;-76
2023/06/21 02:45:00;;;;;;;7.63;7.13;;;;;;;21.57;100.00;100156.25;5092774;28;20190;-76
2023/06/21 02:47:25;;;;;;;8.53;7.93;;;;;;;21.57;100.00;100161.53;5090233;28;20191;-77
2023/06/21 02:49:51;;;;;;;8.73;8.03;;;;;;;21.61;100.00;100167.53;5087404;28;20183;-77
2023/06/21 02:52:16;;;;;;;8.47;7.87;;;;;;;21.62;100.00;100175.31;5091132;28;20212;-75
2023/06/21 02:54:41;;;;;;;8.27;7.67;;;;;;;21.64;100.00;100193.66;5082923;28;20184;-77
2023/06/21 02:57:07;;;;;;;9.20;8.40;;;;;;;21.66;100.00;100209.38;5082887;28;20319;-75
2023/06/21 02:59:32;;;;;;;9.70;8.80;;;;;;;21.69;100.00;100225.03;5086490;28;20189;-76
2023/06/21 03:01:59;;;;;;;9.13;8.17;;;;;;;21.70;100.00;100277.59;5092050;28;20293;-76
2023/06/21 03:04:24;;;;;;;9.00;8.20;;;;;;;21.73;100.00;100332.75;5074370;28;20170;-76
2023/06/21 03:06:50;;;;;;;10.10;8.43;;;;;;;21.74;100.00;100302.84;5087558;28;20207;-77
2023/06/21 03:09:15;;;;;;;9.83;8.83;;;;;;;21.78;100.00;100303.50;5088994;28;20189;-77
2023/06/21 03:11:40;;;;;;;10.53;9.33;;;;;;;21.76;100.00;100286.94;5088054;28;20703;-75
2023/06/21 03:14:06;;;;;;;11.50;9.20;;;;;;;21.73;100.00;100285.34;5085861;28;20182;-76
2023/06/21 03:16:31;;;;;;;10.40;9.27;;;;;;;21.61;100.00;100291.28;5089995;27;20696;-76
2023/06/21 03:18:56;;;;;;;9.00;8.20;;;;;;;21.54;100.00;100274.09;5092561;28;20260;-74
2023/06/21 03:21:25;;;;;;;8.70;7.90;;;;;;;21.45;100.00;100283.34;5085239;28;20209;-76
2023/06/21 03:23:50;;;;;;;7.67;6.97;;;;;;;21.40;100.00;100282.75;5086483;28;21012;-76
2023/06/21 03:26:15;;;;;;;6.50;5.80;;;;;;;21.34;100.00;100259.38;5075794;28;20196;-76
2023/06/21 03:28:42;;;;;;;5.87;5.37;;;;;;;21.27;100.00;100246.53;5082459;28;20193;-75
2023/06/21 03:31:07;;;;;;;5.50;5.10;;;;;;;21.26;100.00;100249.28;5088340;28;20569;-75
2023/06/21 03:33:33;;;;;;;5.80;5.30;;;;;;;21.27;100.00;100251.81;5084001;28;20191;-75
2023/06/21 03:35:58;;;;;;;5.87;5.37;;;;;;;21.27;100.00;100261.50;5098575;28;20215;-76
2023/06/21 03:38:23;;;;;;;9.00;7.00;;;;;;;21.27;100.00;100280.75;5095405;28;20267;-75
2023/06/21 03:40:49;;;;;;;7.30;6.60;;;;;;;21.26;100.00;100286.13;5077862;28;20196;-76
2023/06/21 03:43:15;;;;;;;6.67;6.07;;;;;;;21.23;100.00;100281.88;5086914;28;20658;-75
2023/06/21 03:45:40;;;;;;;7.63;6.83;;;;;;;21.22;100.00;100284.56;5085245;28;20185;-75
2023/06/21 03:48:06;;;;;;;7.13;6.50;;;;;;;21.20;100.00;100266.25;5094200;28;20199;-76
2023/06/21 03:50:32;;;;;;;6.90;6.27;;;;;;;21.14;100.00;100267.44;5084715;28;20245;-76
2023/06/21 03:52:58;;;;;;;6.47;5.70;;;;;;;21.12;100.00;100286.84;5090215;28;20211;-76
2023/06/21 03:55:23;;;;;;;6.83;6.13;;;;;;;21.11;100.00;100291.28;5080949;28;20185;-76
2023/06/21 03:57:49;;;;;;;7.13;6.33;;;;;;;21.11;100.00;100285.16;5094629;28;20183;-75
2023/06/21 04:00:14;;;;;;;7.70;6.90;;;;;;;21.08;100.00;100262.47;5081530;28;20188;-76
2023/06/21 04:02:40;;;;;;;10.30;8.10;;;;;;;20.99;100.00;100240.16;5081328;28;20253;-75
2023/06/21 04:05:06;;;;;;;10.60;8.03;;;;;;;20.89;100.00;100262.63;5079215;28;20193;-74
2023/06/21 04:07:31;;;;;;;8.87;7.97;;;;;;;20.86;100.00;100305.72;5087443;28;20648;-75
2023/06/21 04:09:57;;;;;;;7.67;6.97;;;;;;;20.87;100.00;100309.19;5081913;28;20193;-75
2023/06/21 04:12:22;;;;;;;9.00;8.17;;;;;;;20.89;100.00;100295.94;5082212;28;20239;-75
2023/06/21 04:14:48;;;;;;;8.07;7.37;;;;;;;20.89;100.00;100301.22;5080247;28;20664;-74
2023/06/21 04:17:13;;;;;;;8.27;7.50;;;;;;;20.88;100.00;100276.69;5078689;28;20220;-75
2023/06/21 04:19:38;;;;;;;8.60;7.93;;;;;;;20.90;100.00;100272.22;5088466;28;20186;-75
2023/06/21 04:22:04;;;;;;;8.40;7.50;;;;;;;20.91;100.00;100255.50;5089687;28;20205;-75
2023/06/21 04:24:30;;;;;;;8.63;7.87;;;;;;;20.89;100.00;100256.50;5087351;28;20189;-75
2023/06/21 04:26:58;;;;;;;7.90;7.27;;;;;;;20.89;100.00;100267.00;5085393;28;20585;-75
2023/06/21 04:29:23;;;;;;;8.77;7.93;;;;;;;20.92;100.00;100269.50;5077447;28;20609;-75
2023/06/21 04:31:51;;;;;;;9.03;8.17;;;;;;;20.95;100.00;100278.06;5081516;28;20269;-74
2023/06/21 04:34:17;;;;;;;7.93;7.33;;;;;;;20.96;100.00;100285.03;5084106;28;20195;-75
2023/06/21 04:36:43;;;;;;;8.27;7.60;;;;;;;21.02;100.00;100265.47;5092103;28;20176;-75
2023/06/21 04:39:08;;;;;;;10.37;9.27;;;;;;;21.06;100.00;100251.19;5098780;28;20187;-75
2023/06/21 04:41:36;;;;;;;10.73;9.40;;;;;;;21.06;100.00;100266.13;5079602;28;20281;-74
2023/06/21 04:44:01;;;;;;;9.23;8.33;;;;;;;21.09;100.00;100276.50;5082488;28;20297;-75
2023/06/21 04:46:27;;;;;;;8.90;8.03;;;;;;;21.16;100.00;100281.34;5087533;28;20278;-75
2023/06/21 04:48:53;;;;;;;9.43;8.63;;;;;;;21.22;100.00;100280.19;5089762;28;20245;-75
2023/06/21 04:51:18;;;;;;;8.87;8.03;;;;;;;21.27;100.00;100272.88;5084787;28;20212;-75
2023/06/21 04:53:44;;;;;;;9.60;8.80;;;;;;;21.32;100.00;100272.63;5075012;28;20203;-75
2023/06/21 04:56:13;;;;;;;9.27;8.47;;;;;;;21.37;100.00;100293.44;5085572;28;20192;-75
2023/06/21 04:58:39;;;;;;;9.87;8.97;;;;;;;21.40;100.00;100283.59;5080855;28;20283;-75
2023/06/21 05:01:06;;;;;;;9.60;8.60;;;;;;;21.43;100.00;100288.69;5085760;28;20216;-76
2023/06/21 05:03:32;;;;;;;9.47;8.67;;;;;;;21.46;100.00;100293.78;5094495;28;20221;-75
2023/06/21 05:05:59;;;;;;;7.87;7.17;;;;;;;21.45;100.00;100286.84;5074817;28;20243;-75
2023/06/21 05:08:24;;;;;;;8.37;7.57;;;;;;;21.44;100.00;100277.22;5085029;28;20586;-75
2023/06/21 05:10:50;;;;;;;7.90;7.17;;;;;;;21.44;100.00;100263.19;5084567;28;20278;-75
2023/06/21 05:13:15;;;;;;;7.40;6.70;;;;;;;21.47;100.00;100263.03;5094204;28;20188;-75
2023/06/21 05:15:40;;;;;;;7.70;7.10;;;;;;;21.49;100.00;100255.91;5090703;28;20215;-75
2023/06/21 05:18:05;;;;;;;7.40;6.80;;;;;;;21.52;100.00;100250.47;5079715;28;20880;-76
2023/06/21 05:20:32;;;;;;;7.93;6.40;;;;;;;21.56;100.00;100254.63;5089399;28;20547;-75
2023/06/21 05:22:57;;;;;;;6.93;6.33;;;;;;;21.60;100.00;100255.34;5080737;28;20221;-75
2023/06/21 05:25:22;;;;;;;6.40;5.80;;;;;;;21.64;100.00;100240.22;5081217;28;20550;-75
2023/06/21 05:27:47;;;;;;;7.23;6.33;;;;;;;21.71;100.00;100242.44;5096624;28;20263;-75
2023/06/21 05:30:13;;;;;;;5.73;4.97;;;;;;;21.81;100.00;100255.06;5125753;28;20506;-74
2023/06/21 05:32:38;;;;;;;6.20;5.43;;;;;;;21.93;100.00;100265.75;5108836;28;20734;-76
2023/06/21 05:35:04;;;;;;;5.93;5.40;;;;;;;22.14;100.00;100276.03;5088692;28;20177;-76
2023/06/21 05:37:29;;;;;;;5.70;5.20;;;;;;;22.43;100.00;100281.41;5088948;28;20180;-75
2023/06/21 05:39:56;;;;;;;6.43;5.83;;;;;;;22.76;100.00;100285.63;5087284;28;20177;-75
2023/06/21 05:42:21;;;;;;;7.87;5.70;;;;;;;23.04;100.00;100291.00;5085008;28;20213;-75
2023/06/21 05:44:47;;;;;;;6.50;5.77;;;;;;;23.21;100.00;100296.13;5090936;28;20181;-76
2023/06/21 05:47:13;;;;;;;5.67;5.17;;;;;;;23.31;100.00;100306.94;5077690;28;20653;-76
2023/06/21 05:49:39;;;;;;;5.77;5.17;;;;;;;23.36;100.00;100309.31;5082209;28;20176;-75
2023/06/21 05:52:04;;;;;;;6.07;5.50;;;;;;;23.42;100.00;100314.22;5084537;28;20227;-76
2023/06/21 05:54:29;;;;;;;5.50;5.00;;;;;;;23.50;100.00;100311.94;5085935;28;20204;-75
2023/06/21 05:56:55;;;;;;;6.17;5.17;;;;;;;23.64;100.00;100324.28;5084034;28;20185;-75
2023/06/21 05:59:20;;;;;;;5.47;5.00;;;;;;;24.02;100.00;100317.50;5086747;28;20205;-75
2023/06/21 06:01:46;;;;;;;4.90;4.50;;;;;;;24.41;100.00;100304.41;5086566;28;20201;-75
2023/06/21 06:04:11;;;;;;;4.70;4.30;;;;;;;24.57;100.00;100301.56;5091537;28;20708;-75
2023/06/21 06:06:39;;;;;;;4.83;4.37;;;;;;;24.60;100.00;100314.56;5086678;28;20223;-75
2023/06/21 06:09:05;;;;;;;5.80;4.40;;;;;;;24.56;100.00;100318.38;5085176;28;20260;-76
2023/06/21 06:11:30;;;;;;;4.20;3.80;;;;;;;24.50;100.00;100323.13;5086089;28;20200;-75
2023/06/21 06:13:56;;;;;;;5.20;4.10;;;;;;;24.49;100.00;100324.09;5082874;28;20201;-75
2023/06/21 06:16:21;;;;;;;4.67;4.10;;;;;;;24.49;100.00;100334.69;5089012;28;20606;-76
2023/06/21 06:18:47;;;;;;;3.97;3.63;;;;;;;24.52;100.00;100341.53;5080480;28;20188;-74
2023/06/21 06:21:12;;;;;;;4.53;4.13;;;;;;;24.59;100.00;100350.75;5085944;28;20679;-74
2023/06/21 06:23:37;;;;;;;4.67;3.60;;;;;;;24.64;100.00;100345.19;5096600;28;20231;-74
2023/06/21 06:26:02;;;;;;;3.50;3.30;;;;;;;24.69;100.00;100353.63;5068647;28;20607;-75
2023/06/21 06:28:28;;;;;;;5.30;4.20;;;;;;;24.93;100.00;100358.25;5080684;28;20221;-74
2023/06/21 06:30:53;;;;;;;5.23;4.00;;;;;;;24.94;100.00;100359.97;5076125;28;20193;-74
2023/06/21 06:33:18;;;;;;;4.50;4.10;;;;;;;24.93;100.00;100345.84;5089009;28;20185;-74
2023/06/21 06:35:44;;;;;;;3.87;3.40;;;;;;;24.93;100.00;100350.31;5100288;28;20180;-73
2023/06/21 06:38:09;;;;;;;4.07;3.77;;;;;;;24.84;100.00;100348.28;5093895;28;20192;-74
2023/06/21 06:40:35;;;;;;;5.70;4.87;;;;;;;24.65;100.00;100365.41;5084480;28;20182;-74
2023/06/21 06:43:01;;;;;;;4.53;4.03;;;;;;;24.48;100.00;100367.38;5085737;28;20212;-73
2023/06/21 06:45:26;;;;;;;4.90;4.03;;;;;;;24.32;100.00;100372.81;5095244;28;20659;-74
2023/06/21 06:47:51;;;;;;;4.77;3.93;;;;;;;24.19;100.00;100371.91;5082338;28;20177;-73
2023/06/21 06:50:17;;;;;;;5.10;4.03;;;;;;;24.14;100.00;100364.28;5093584;28;20702;-74
2023/06/21 06:52:42;;;;;;;4.33;3.93;;;;;;;24.12;100.00;100375.91;5090841;28;20197;-74
2023/06/21 06:55:08;;;;;;;4.60;3.97;;;;;;;24.09;100.00;100382.22;5097793;28;20691;-74
2023/06/21 06:57:33;;;;;;;6.00;4.57;;;;;;;24.07;100.00;100393.84;5100231;28;20188;-74
2023/06/21 06:59:58;;;;;;;5.43;4.93;;;;;;;24.04;100.00;100390.47;5087146;28;20200;-73
2023/06/21 07:02:24;;;;;;;5.23;4.70;;;;;;;24.10;100.00;100386.56;5090670;28;20216;-74
2023/06/21 07:04:49;;;;;;;5.10;4.43;;;;;;;24.45;100.00;100385.22;5083386;28;20177;-74
2023/06/21 07:07:14;;;;;;;4.80;4.40;;;;;;;25.20;100.00;100373.19;5069980;28;20181;-74
2023/06/21 07:09:40;;;;;;;5.43;4.50;;;;;;;25.98;100.00;100369.47;5078735;28;20173;-74
2023/06/21 07:12:05;;;;;;;4.10;3.80;;;;;;;26.55;100.00;100366.25;5085271;28;20212;-74
2023/06/21 07:14:31;;;;;;;5.77;4.20;;;;;;;26.94;100.00;100356.25;5093894;28;20942;-76
2023/06/21 07:16:56;;;;;;;4.87;4.10;;;;;;;27.08;99.51;100355.16;5091121;28;20204;-74
2023/06/21 07:19:22;;;;;;;5.13;4.70;;;;;;;27.05;99.79;100347.47;5097797;27;20185;-74
2023/06/21 07:21:47;;;;;;;5.47;4.13;;;;;;;26.99;97.88;100350.56;5095276;28;20729;-75
2023/06/21 07:24:13;;;;;;;5.50;4.93;;;;;;;27.04;99.05;100343.09;5072623;28;20202;-74
2023/06/21 07:26:39;;;;;;;5.43;4.93;;;;;;;27.15;99.04;100359.06;5073145;28;20181;-73
2023/06/21 07:29:04;;;;;;;5.37;4.97;;;;;;;27.36;98.70;100364.47;5082200;28;20178;-74
2023/06/21 07:31:32;;;;;;;6.77;6.00;;;;;;;27.72;97.41;100371.50;5093869;28;20207;-74
2023/06/21 07:33:57;;;;;;;5.68;5.18;;;;;;;28.28;95.42;100365.22;5091072;28;20767;-74
2023/06/21 07:36:23;;;;;;;6.28;4.80;;;;;;;28.89;92.80;100375.22;5105039;28;20173;-74
2023/06/21 07:38:48;;;;;;;5.72;5.22;;;;;;;29.15;90.67;100373.97;5093387;28;20228;-74
2023/06/21 07:41:15;;;;;;;5.68;4.65;;;;;;;29.46;88.43;100384.66;5081011;28;20209;-73
2023/06/21 07:43:40;;;;;;;7.40;6.35;;;;;;;29.11;89.02;100389.38;5082418;28;20270;-74
2023/06/21 07:46:06;;;;;;;5.65;4.63;;;;;;;29.29;89.39;100388.72;5080630;28;20210;-74
2023/06/21 07:48:31;;;;;;;6.43;4.68;;;;;;;29.38;88.38;100389.78;5095797;28;20542;-74
2023/06/21 07:50:56;;;;;;;6.30;5.70;;;;;;;29.27;88.60;100380.88;5081327;28;20196;-74
2023/06/21 07:53:22;;;;;;;6.30;5.38;;;;;;;29.59;88.22;100385.25;5092690;28;20220;-73
2023/06/21 07:55:47;;;;;;;6.25;5.65;;;;;;;29.52;87.86;100383.25;5085370;28;20208;-75
2023/06/21 07:58:12;;;;;;;5.95;5.00;;;;;;;29.35;88.06;100390.91;5081481;28;20280;-75
2023/06/21 08:00:38;;;;;;;5.55;5.15;;;;;;;29.38;87.76;100395.97;5085569;28;20178;-75
2023/06/21 08:03:03;;;;;;;8.63;5.97;;;;;;;29.27;85.73;100402.22;5081601;28;20209;-75
2023/06/21 08:05:28;;;;;;;5.57;5.18;;;;;;;29.16;85.90;100405.78;5087775;28;20215;-74
2023/06/21 08:07:55;;;;;;;5.97;5.25;;;;;;;28.92;85.98;100414.06;5084626;28;20281;-74
2023/06/21 08:10:20;;;;;;;5.03;4.63;;;;;;;28.53;86.64;100409.25;5084217;28;20188;-74
2023/06/21 08:12:45;;;;;;;5.13;4.63;;;;;;;28.13;87.17;100418.69;5085666;28;20290;-74
2023/06/21 08:15:11;;;;;;;5.53;5.13;;;;;;;27.75;88.79;100432.41;5092835;28;20192;-74
2023/06/21 08:17:36;;;;;;;5.27;4.77;;;;;;;27.37;89.63;100437.09;5080659;28;20178;-73
2023/06/21 08:20:03;;;;;;;5.57;4.70;;;;;;;26.98;91.41;100439.19;5069996;28;20600;-74
2023/06/21 08:22:28;;;;;;;5.33;4.83;;;;;;;26.58;93.50;100446.50;5083520;28;20236;-73
2023/06/21 08:24:55;;;;;;;6.30;5.70;;;;;;;26.37;94.11;100440.09;5088003;28;20215;-74
2023/06/21 08:27:20;;;;;;;6.47;5.47;;;;;;;26.28;94.35;100438.97;5082851;28;20181;-73
2023/06/21 08:29:47;;;;;;;6.43;5.83;;;;;;;26.13;94.69;100433.81;5076636;28;20181;-74
2023/06/21 08:32:12;;;;;;;5.53;5.10;;;;;;;26.17;94.33;100431.78;5089290;28;20208;-75
2023/06/21 08:34:37;;;;;;;5.60;5.10;;;;;;;26.25;94.10;100425.94;5100822;28;20722;-75
2023/06/21 08:37:03;;;;;;;5.10;4.70;;;;;;;26.31;93.95;100410.44;5090715;28;20625;-74
2023/06/21 08:39:28;;;;;;;5.27;4.87;;;;;;;26.39;93.77;100401.91;5109344;27;20192;-74
2023/06/21 08:41:54;;;;;;;6.00;5.40;;;;;;;26.41;94.33;100407.09;5080043;28;20200;-75
2023/06/21 08:44:20;;;;;;;5.47;4.97;;;;;;;26.50;94.27;100400.25;5082916;28;20467;-76
2023/06/21 08:46:49;;;;;;;5.63;4.90;;;;;;;26.62;94.12;100394.03;5082233;28;20184;-74
2023/06/21 08:49:18;;;;;;;5.73;5.13;;;;;;;26.71;94.27;100380.03;5092839;28;20176;-75
2023/06/21 08:51:46;;;;;;;5.23;4.63;;;;;;;26.85;94.27;100378.22;5096811;28;20261;-74
2023/06/21 08:54:12;;;;;;;7.57;5.17;;;;;;;26.93;93.51;100367.84;5095066;28;20177;-77
2023/06/21 08:56:47;;;;;;;4.20;3.80;;;;;;;26.88;91.30;100364.69;5092072;28;20189;-74
2023/06/21 08:59:20;;;;;;;4.23;3.83;;;;;;;26.86;90.91;100343.56;5090984;28;20608;-74
2023/06/21 09:01:58;;;;;;;4.37;4.00;;;;;;;26.86;91.54;100353.31;5087317;28;20617;-74
2023/06/21 09:04:27;;;;;;;4.33;3.73;;;;;;;26.88;91.24;100362.88;5076757;28;20205;-74
2023/06/21 09:06:54;;;;;;;4.80;4.10;;;;;;;26.88;90.26;100354.91;5085378;28;20169;-75
2023/06/21 09:09:22;;;;;;;5.20;3.87;;;;;;;26.83;90.09;100351.75;5067364;28;20189;-74
2023/06/21 09:11:48;;;;;;;4.17;3.77;;;;;;;26.74;90.39;100347.13;5082331;28;20196;-75
2023/06/21 09:14:14;;;;;;;3.87;3.57;;;;;;;26.64;91.19;100365.56;5082439;28;20221;-74
2023/06/21 09:16:39;;;;;;;5.40;4.00;;;;;;;26.55;91.43;100371.53;5080426;28;20660;-74
2023/06/21 09:19:05;;;;;;;4.50;4.10;;;;;;;26.43;91.53;100371.50;5088393;28;20184;-74
2023/06/21 09:21:31;;;;;;;4.00;3.70;;;;;;;26.33;92.25;100378.47;5090089;28;20200;-74
2023/06/21 09:23:56;;;;;;;4.90;4.40;;;;;;;26.06;90.10;100379.53;5085697;28;20700;-74
2023/06/21 09:26:22;;;;;;;4.03;3.70;;;;;;;25.94;91.00;100383.06;5082174;28;20184;-74
2023/06/21 09:28:47;;;;;;;4.23;3.83;;;;;;;25.82;91.66;100398.03;5080573;28;20185;-74
2023/06/21 09:31:13;;;;;;;3.67;3.37;;;;;;;25.75;92.60;100402.06;5081393;28;20211;-74
2023/06/21 09:33:38;;;;;;;3.70;3.40;;;;;;;25.71;93.60;100415.53;5079194;28;20177;-74
2023/06/21 09:36:05;;;;;;;4.30;3.90;;;;;;;25.67;94.19;100429.13;5085321;28;20173;-74
2023/06/21 09:38:35;;;;;;;4.07;3.67;;;;;;;25.64;94.55;100439.97;5086016;28;20188;-75
2023/06/21 09:41:01;;;;;;;4.37;3.97;;;;;;;25.60;94.28;100455.22;5089326;28;20188;-74
2023/06/21 09:43:27;;;;;;;4.53;3.93;;;;;;;25.56;93.99;100459.88;5082491;28;20197;-74
2023/06/21 09:46:07;;;;;;;4.33;3.87;;;;;;;25.53;94.38;100446.84;5098350;28;20222;-75
2023/06/21 09:48:34;;;;;;;4.90;4.50;;;;;;;25.55;94.64;100437.00;5103434;28;20188;-75
2023/06/21 09:51:05;;;;;;;6.53;5.73;;;;;;;25.46;95.10;100436.78;5095876;28;20193;-74
2023/06/21 09:53:30;;;;;;;6.17;5.57;;;;;;;25.48;95.77;100432.22;5090761;28;20549;-74
2023/06/21 09:55:56;;;;;;;6.13;5.63;;;;;;;25.52;96.38;100431.91;5085475;28;20190;-74
2023/06/21 09:58:22;;;;;;;6.30;5.67;;;;;;;25.61;97.41;100434.88;5079568;28;20181;-75
2023/06/21 10:00:48;;;;;;;7.93;7.23;;;;;;;25.58;95.58;100435.09;5078853;28;20580;-74
2023/06/21 10:03:14;;;;;;;6.43;5.83;;;;;;;25.68;95.99;100425.53;5088523;28;20204;-74
2023/06/21 10:05:54;;;;;;;6.57;5.97;;;;;;;25.89;96.45;100428.44;5101193;28;20188;-75
2023/06/21 10:08:24;;;;;;;6.50;6.00;;;;;;;26.09;96.28;100436.78;5099885;28;20173;-74
2023/06/21 10:10:49;;;;;;;6.20;5.70;;;;;;;26.27;94.80;100439.94;5069852;28;20170;-74
2023/06/21 10:13:15;;;;;;;6.47;5.97;;;;;;;26.47;94.23;100449.94;5086908;28;20216;-74
2023/06/21 10:15:45;;;;;;;7.00;6.40;;;;;;;26.63;93.55;100459.41;5086638;28;20247;-75
2023/06/21 10:18:12;;;;;;;6.40;5.83;;;;;;;26.82;93.10;100464.22;5092520;28;20181;-74
2023/06/21 10:20:39;;;;;;;6.00;5.60;;;;;;;26.93;91.80;100466.91;5082829;28;20727;-75
2023/06/21 10:23:07;;;;;;;6.33;5.83;;;;;;;27.02;91.39;100468.03;5096693;28;20219;-75
2023/06/21 10:25:33;;;;;;;7.27;6.57;;;;;;;26.98;91.30;100468.38;5085943;28;20177;-74
2023/06/21 10:28:00;;;;;;;6.47;5.93;;;;;;;26.96;91.35;100476.47;5088710;28;20851;-75
2023/06/21 10:30:27;;;;;;;6.43;5.93;;;;;;;26.96;90.43;100472.97;5085233;28;20193;-75
2023/06/21 10:32:55;;;;;;;6.33;5.77;;;;;;;27.06;90.20;100473.97;5090320;28;20224;-75
2023/06/21 10:35:25;;;;;;;6.43;5.83;;;;;;;27.21;89.91;100466.63;5096575;28;20188;-75
2023/06/21 10:38:02;;;;;;;6.33;5.83;;;;;;;27.39;88.83;100486.50;5099973;28;20200;-75
2023/06/21 10:40:29;;;;;;;8.23;7.53;;;;;;;27.30;90.28;100478.38;5097366;28;20173;-75
2023/06/21 10:42:57;;;;;;;7.40;6.70;;;;;;;27.48;90.47;100477.00;5087001;28;20211;-75
2023/06/21 10:45:23;;;;;;;7.00;6.40;;;;;;;27.81;88.56;100483.31;5083801;28;20189;-75
2023/06/21 10:47:52;;;;;;;7.77;7.07;;;;;;;27.84;88.94;100480.38;5079827;28;20280;-74
2023/06/21 10:50:19;;;;;;;8.80;7.97;;;;;;;27.82;88.51;100479.69;5100122;28;20173;-75
2023/06/21 10:52:49;;;;;;;8.00;7.30;;;;;;;28.14;88.13;100478.09;5088901;28;20200;-74
2023/06/21 10:55:15;;;;;;;9.43;8.53;;;;;;;28.14;85.79;100476.25;5084478;28;20185;-75
2023/06/21 10:57:41;;;;;;;9.73;8.70;;;;;;;28.16;86.52;100473.50;5086813;28;20665;-74
2023/06/21 11:00:08;;;;;;;8.47;7.67;;;;;;;28.07;87.20;100477.72;5090089;28;20181;-74
2023/06/21 11:02:34;;;;;;;6.70;5.93;;;;;;;28.38;86.26;100475.25;5095455;28;20197;-74
2023/06/21 11:05:35;;;;;;;7.83;7.10;;;;;;;28.49;85.30;100473.53;5083651;28;21058;-74
2023/06/21 11:08:05;;;;;;;6.33;5.83;;;;;;;28.70;85.53;100476.25;5044462;28;20232;-74
2023/06/21 11:10:47;;;;;;;7.70;7.00;;;;;;;28.81;84.98;100472.72;5093354;28;20289;-74
2023/06/21 11:13:13;;;;;;;9.60;8.77;;;;;;;28.56;84.81;100467.56;5084267;28;20181;-75
2023/06/21 11:15:40;;;;;;;7.30;6.60;;;;;;;28.73;84.97;100478.69;5086670;28;20706;-74
2023/06/21 11:18:08;;;;;;;7.13;6.43;;;;;;;28.82;84.15;100461.94;5087916;28;20214;-75